Hobart Regional Airport
KHBR : now visible

Aeroporto :











RITROVATECI SU...

 
LOGIN :

Iscrizione | Disclaimer

   EN    FR    IT 

 









Sommario :    VFR   VFR Marginale   IFR   IFR Intensivo   IFR Molto Intensivo
Visibilità : 
Base nubi : 
>= 8 km
>= 3000ft
5 / 8 km
1000 / 3000 ft
1500m / 5 km
500 / 1000 ft
800 / 1500m
200 / 500 ft
< 800m
< 200 ft
Simboli :   Temporali  Nebbia  Neve Forte  Precipitazioni Forti  Vento > 20 kt






- Altitudine del aeroporto : 1563 ft


KHBR - Hobart Regional

ULTIMO METAR :
  • 201153Z AUTO 04014KT 10SM FEW019 OVC060 03/M02 A3048 RMK AO2 PK WND 04030/1121 SLP325 T00331017 10061 20033 53028

METARs OBSOLETI :
  • 201053Z AUTO 04020KT 10SM OVC080 03/M02 A3044 RMK AO2 PK WND 04031/1032 SLP309 T00331017
  • 200953Z AUTO 04020G30KT 10SM OVC080 04/M03 A3041 RMK AO2 PK WND 04030/0950 SLP297 T00441033
  • 200853Z AUTO 04018KT 10SM OVC070 05/M04 A3039 RMK AO2 SLP293 T00501044 51018

Previsioni scadute.



MetMap, La meteo Aeronautica in un colpo d'occhio ! - Copyright ORBIFLY Dicembre 2007 - Disclaimer

ORBIFLY MET'MAP TEAM :

Programmazione e sviluppo : Alexandra Zaïnal
Concezione : Baudouin d'Aumeries
Aiuto per la programmazione : Marc-Olivier Méhu
Supporto tecnico e logistico : Manuel Goepfert
Aiuto per la traduzione : Arnaldo La Scala

Contatto : metmap@orbifly.com




FONTI E CREDITI :

   NOAA       Earth
Advisory